sensor_id;sensor_type;location;lat;lon;timestamp;P1;durP1;ratioP1;P2;durP2;ratioP2
52586;SDS011;38480;52.724;6.436;2022-09-28T00:01:44;59.03;;;24.27;;
52586;SDS011;38480;52.724;6.436;2022-09-28T00:04:10;45.33;;;22.20;;
52586;SDS011;38480;52.724;6.436;2022-09-28T00:06:36;47.27;;;23.03;;
52586;SDS011;38480;52.724;6.436;2022-09-28T00:09:03;46.30;;;22.87;;
52586;SDS011;38480;52.724;6.436;2022-09-28T00:11:29;46.67;;;21.10;;
52586;SDS011;38480;52.724;6.436;2022-09-28T00:13:56;64.20;;;24.67;;
52586;SDS011;38480;52.724;6.436;2022-09-28T00:16:28;74.17;;;24.83;;
52586;SDS011;38480;52.724;6.436;2022-09-28T00:18:55;50.63;;;22.93;;
52586;SDS011;38480;52.724;6.436;2022-09-28T00:21:22;56.07;;;23.53;;
52586;SDS011;38480;52.724;6.436;2022-09-28T00:23:50;56.70;;;23.67;;
52586;SDS011;38480;52.724;6.436;2022-09-28T00:26:35;50.77;;;22.73;;
52586;SDS011;38480;52.724;6.436;2022-09-28T00:29:01;56.53;;;24.00;;
52586;SDS011;38480;52.724;6.436;2022-09-28T00:31:29;59.27;;;25.37;;
52586;SDS011;38480;52.724;6.436;2022-09-28T00:33:56;59.97;;;25.37;;
52586;SDS011;38480;52.724;6.436;2022-09-28T00:36:24;67.07;;;25.73;;
52586;SDS011;38480;52.724;6.436;2022-09-28T00:38:54;75.90;;;27.60;;
52586;SDS011;38480;52.724;6.436;2022-09-28T00:41:21;85.60;;;35.17;;
52586;SDS011;38480;52.724;6.436;2022-09-28T00:43:47;86.30;;;29.17;;
52586;SDS011;38480;52.724;6.436;2022-09-28T00:46:17;75.57;;;29.17;;
52586;SDS011;38480;52.724;6.436;2022-09-28T00:48:48;69.57;;;25.97;;
52586;SDS011;38480;52.724;6.436;2022-09-28T00:51:15;77.10;;;28.47;;
52586;SDS011;38480;52.724;6.436;2022-09-28T00:53:42;107.70;;;32.23;;
52586;SDS011;38480;52.724;6.436;2022-09-28T00:56:10;82.97;;;28.47;;
52586;SDS011;38480;52.724;6.436;2022-09-28T00:58:38;73.07;;;26.97;;
52586;SDS011;38480;52.724;6.436;2022-09-28T01:01:06;90.73;;;28.87;;
52586;SDS011;38480;52.724;6.436;2022-09-28T01:03:32;88.43;;;31.07;;
52586;SDS011;38480;52.724;6.436;2022-09-28T01:05:59;98.10;;;31.80;;
52586;SDS011;38480;52.724;6.436;2022-09-28T01:08:26;108.73;;;33.70;;
52586;SDS011;38480;52.724;6.436;2022-09-28T01:10:53;89.93;;;30.83;;
52586;SDS011;38480;52.724;6.436;2022-09-28T01:13:20;88.53;;;31.37;;
52586;SDS011;38480;52.724;6.436;2022-09-28T01:15:48;101.33;;;33.03;;
52586;SDS011;38480;52.724;6.436;2022-09-28T01:18:18;88.77;;;30.63;;
52586;SDS011;38480;52.724;6.436;2022-09-28T01:20:48;92.77;;;32.07;;
52586;SDS011;38480;52.724;6.436;2022-09-28T01:23:31;92.07;;;31.67;;
52586;SDS011;38480;52.724;6.436;2022-09-28T01:26:09;93.23;;;32.33;;
52586;SDS011;38480;52.724;6.436;2022-09-28T01:28:36;88.23;;;32.30;;
52586;SDS011;38480;52.724;6.436;2022-09-28T01:31:09;95.90;;;34.23;;
52586;SDS011;38480;52.724;6.436;2022-09-28T01:36:06;111.50;;;35.47;;
52586;SDS011;38480;52.724;6.436;2022-09-28T01:38:42;87.67;;;31.43;;
52586;SDS011;38480;52.724;6.436;2022-09-28T01:41:11;99.93;;;35.73;;
52586;SDS011;38480;52.724;6.436;2022-09-28T01:43:39;102.40;;;34.97;;
52586;SDS011;38480;52.724;6.436;2022-09-28T01:46:15;108.97;;;35.33;;
52586;SDS011;38480;52.724;6.436;2022-09-28T01:51:33;128.77;;;38.60;;
52586;SDS011;38480;52.724;6.436;2022-09-28T01:54:02;139.13;;;39.20;;
52586;SDS011;38480;52.724;6.436;2022-09-28T01:59:17;167.30;;;42.33;;
52586;SDS011;38480;52.724;6.436;2022-09-28T02:01:50;264.20;;;51.30;;
52586;SDS011;38480;52.724;6.436;2022-09-28T02:04:19;159.90;;;43.13;;
52586;SDS011;38480;52.724;6.436;2022-09-28T02:06:49;178.83;;;45.63;;
52586;SDS011;38480;52.724;6.436;2022-09-28T02:09:18;127.53;;;39.80;;
52586;SDS011;38480;52.724;6.436;2022-09-28T02:11:47;171.63;;;44.47;;
52586;SDS011;38480;52.724;6.436;2022-09-28T02:14:14;186.93;;;45.37;;
52586;SDS011;38480;52.724;6.436;2022-09-28T02:16:42;186.50;;;46.27;;
52586;SDS011;38480;52.724;6.436;2022-09-28T02:19:10;180.83;;;46.30;;
52586;SDS011;38480;52.724;6.436;2022-09-28T02:21:42;226.70;;;50.47;;
52586;SDS011;38480;52.724;6.436;2022-09-28T02:24:20;311.57;;;56.10;;
52586;SDS011;38480;52.724;6.436;2022-09-28T02:26:47;295.40;;;54.23;;
52586;SDS011;38480;52.724;6.436;2022-09-28T02:29:14;223.40;;;47.67;;
52586;SDS011;38480;52.724;6.436;2022-09-28T02:31:41;312.23;;;56.97;;
52586;SDS011;38480;52.724;6.436;2022-09-28T02:34:07;223.60;;;46.00;;
52586;SDS011;38480;52.724;6.436;2022-09-28T02:36:33;175.27;;;41.57;;
52586;SDS011;38480;52.724;6.436;2022-09-28T02:39:00;309.70;;;46.23;;
52586;SDS011;38480;52.724;6.436;2022-09-28T02:41:38;429.63;;;42.97;;
52586;SDS011;38480;52.724;6.436;2022-09-28T02:57:07;510.40;;;59.97;;
52586;SDS011;38480;52.724;6.436;2022-09-28T03:05:13;480.37;;;57.17;;
52586;SDS011;38480;52.724;6.436;2022-09-28T03:10:13;549.27;;;64.60;;
52586;SDS011;38480;52.724;6.436;2022-09-28T03:12:40;788.27;;;84.53;;
52586;SDS011;38480;52.724;6.436;2022-09-28T03:17:39;531.23;;;65.00;;
52586;SDS011;38480;52.724;6.436;2022-09-28T03:20:05;684.03;;;77.03;;
52586;SDS011;38480;52.724;6.436;2022-09-28T03:22:32;567.33;;;70.20;;
52586;SDS011;38480;52.724;6.436;2022-09-28T03:24:58;577.70;;;72.07;;
52586;SDS011;38480;52.724;6.436;2022-09-28T03:27:24;433.63;;;64.97;;
52586;SDS011;38480;52.724;6.436;2022-09-28T03:29:50;517.47;;;71.23;;
52586;SDS011;38480;52.724;6.436;2022-09-28T03:32:16;447.07;;;65.50;;
52586;SDS011;38480;52.724;6.436;2022-09-28T03:34:42;404.77;;;63.50;;
52586;SDS011;38480;52.724;6.436;2022-09-28T03:37:08;447.43;;;66.53;;
52586;SDS011;38480;52.724;6.436;2022-09-28T03:39:34;495.47;;;69.60;;
52586;SDS011;38480;52.724;6.436;2022-09-28T03:42:01;444.60;;;68.40;;
52586;SDS011;38480;52.724;6.436;2022-09-28T03:44:27;244.43;;;50.40;;
52586;SDS011;38480;52.724;6.436;2022-09-28T03:46:53;228.93;;;48.33;;
52586;SDS011;38480;52.724;6.436;2022-09-28T03:49:19;235.00;;;49.60;;
52586;SDS011;38480;52.724;6.436;2022-09-28T03:51:45;292.50;;;55.43;;
52586;SDS011;38480;52.724;6.436;2022-09-28T03:54:11;225.77;;;47.80;;
52586;SDS011;38480;52.724;6.436;2022-09-28T03:56:39;244.83;;;51.97;;
52586;SDS011;38480;52.724;6.436;2022-09-28T03:59:05;325.87;;;54.97;;
52586;SDS011;38480;52.724;6.436;2022-09-28T04:01:31;226.13;;;50.90;;
52586;SDS011;38480;52.724;6.436;2022-09-28T04:03:57;266.67;;;53.27;;
52586;SDS011;38480;52.724;6.436;2022-09-28T04:06:24;208.40;;;48.60;;
52586;SDS011;38480;52.724;6.436;2022-09-28T04:08:50;236.03;;;50.57;;
52586;SDS011;38480;52.724;6.436;2022-09-28T04:11:16;386.47;;;64.33;;
52586;SDS011;38480;52.724;6.436;2022-09-28T04:13:42;388.23;;;62.87;;
52586;SDS011;38480;52.724;6.436;2022-09-28T04:16:09;417.23;;;67.07;;
52586;SDS011;38480;52.724;6.436;2022-09-28T04:18:35;503.30;;;74.57;;
52586;SDS011;38480;52.724;6.436;2022-09-28T04:23:30;427.90;;;63.93;;
52586;SDS011;38480;52.724;6.436;2022-09-28T04:25:56;563.07;;;77.47;;
52586;SDS011;38480;52.724;6.436;2022-09-28T04:28:23;533.70;;;73.37;;
52586;SDS011;38480;52.724;6.436;2022-09-28T04:31:09;543.13;;;73.00;;
52586;SDS011;38480;52.724;6.436;2022-09-28T04:33:35;447.87;;;58.97;;
52586;SDS011;38480;52.724;6.436;2022-09-28T04:36:01;557.73;;;72.47;;
52586;SDS011;38480;52.724;6.436;2022-09-28T04:38:27;525.77;;;70.80;;
52586;SDS011;38480;52.724;6.436;2022-09-28T04:40:53;590.23;;;77.03;;
52586;SDS011;38480;52.724;6.436;2022-09-28T04:43:19;528.90;;;68.53;;
52586;SDS011;38480;52.724;6.436;2022-09-28T04:45:45;504.97;;;64.80;;
52586;SDS011;38480;52.724;6.436;2022-09-28T04:48:11;622.87;;;75.87;;
52586;SDS011;38480;52.724;6.436;2022-09-28T04:50:37;746.77;;;85.10;;
52586;SDS011;38480;52.724;6.436;2022-09-28T04:53:03;734.87;;;82.10;;
52586;SDS011;38480;52.724;6.436;2022-09-28T04:55:29;808.30;;;87.03;;
52586;SDS011;38480;52.724;6.436;2022-09-28T04:57:59;589.53;;;70.40;;
52586;SDS011;38480;52.724;6.436;2022-09-28T05:00:30;676.30;;;79.47;;
52586;SDS011;38480;52.724;6.436;2022-09-28T05:02:59;595.77;;;73.33;;
52586;SDS011;38480;52.724;6.436;2022-09-28T05:05:26;667.40;;;77.57;;
52586;SDS011;38480;52.724;6.436;2022-09-28T05:07:55;660.47;;;74.77;;
52586;SDS011;38480;52.724;6.436;2022-09-28T05:10:21;673.97;;;76.93;;
52586;SDS011;38480;52.724;6.436;2022-09-28T05:12:48;767.93;;;83.77;;
52586;SDS011;38480;52.724;6.436;2022-09-28T05:15:14;751.57;;;82.00;;
52586;SDS011;38480;52.724;6.436;2022-09-28T05:17:40;728.87;;;82.40;;
52586;SDS011;38480;52.724;6.436;2022-09-28T05:20:06;734.40;;;81.00;;
52586;SDS011;38480;52.724;6.436;2022-09-28T05:22:33;743.77;;;81.20;;
52586;SDS011;38480;52.724;6.436;2022-09-28T05:24:59;683.57;;;77.87;;
52586;SDS011;38480;52.724;6.436;2022-09-28T05:27:26;701.17;;;79.67;;
52586;SDS011;38480;52.724;6.436;2022-09-28T05:29:52;669.57;;;77.37;;
52586;SDS011;38480;52.724;6.436;2022-09-28T05:32:19;656.40;;;79.30;;
52586;SDS011;38480;52.724;6.436;2022-09-28T05:34:45;672.20;;;78.60;;
52586;SDS011;38480;52.724;6.436;2022-09-28T05:37:11;733.10;;;83.30;;
52586;SDS011;38480;52.724;6.436;2022-09-28T05:39:37;725.83;;;83.10;;
52586;SDS011;38480;52.724;6.436;2022-09-28T05:42:03;463.83;;;64.90;;
52586;SDS011;38480;52.724;6.436;2022-09-28T05:44:29;728.80;;;87.00;;
52586;SDS011;38480;52.724;6.436;2022-09-28T05:46:55;489.43;;;62.90;;
52586;SDS011;38480;52.724;6.436;2022-09-28T05:49:21;697.67;;;82.90;;
52586;SDS011;38480;52.724;6.436;2022-09-28T05:51:47;524.43;;;66.37;;
52586;SDS011;38480;52.724;6.436;2022-09-28T05:54:13;641.30;;;79.40;;
52586;SDS011;38480;52.724;6.436;2022-09-28T05:56:39;634.23;;;78.73;;
52586;SDS011;38480;52.724;6.436;2022-09-28T05:59:05;629.53;;;76.83;;
52586;SDS011;38480;52.724;6.436;2022-09-28T06:01:31;589.73;;;75.13;;
52586;SDS011;38480;52.724;6.436;2022-09-28T06:03:57;593.40;;;74.70;;
52586;SDS011;38480;52.724;6.436;2022-09-28T06:06:23;442.40;;;63.73;;
52586;SDS011;38480;52.724;6.436;2022-09-28T06:08:49;471.60;;;64.93;;
52586;SDS011;38480;52.724;6.436;2022-09-28T06:11:15;1039.90;;;151.70;;
52586;SDS011;38480;52.724;6.436;2022-09-28T06:13:42;189.07;;;42.80;;
52586;SDS011;38480;52.724;6.436;2022-09-28T06:16:12;209.50;;;44.60;;
52586;SDS011;38480;52.724;6.436;2022-09-28T06:18:39;238.37;;;48.83;;
52586;SDS011;38480;52.724;6.436;2022-09-28T06:21:05;179.63;;;41.90;;
52586;SDS011;38480;52.724;6.436;2022-09-28T06:23:34;205.37;;;45.60;;
52586;SDS011;38480;52.724;6.436;2022-09-28T06:26:00;193.90;;;43.67;;
52586;SDS011;38480;52.724;6.436;2022-09-28T06:28:26;168.90;;;42.93;;
52586;SDS011;38480;52.724;6.436;2022-09-28T06:30:52;212.40;;;45.37;;
52586;SDS011;38480;52.724;6.436;2022-09-28T06:33:18;203.33;;;45.87;;
52586;SDS011;38480;52.724;6.436;2022-09-28T06:35:45;231.37;;;47.53;;
52586;SDS011;38480;52.724;6.436;2022-09-28T06:38:12;172.23;;;41.43;;
52586;SDS011;38480;52.724;6.436;2022-09-28T06:40:38;165.63;;;40.93;;
52586;SDS011;38480;52.724;6.436;2022-09-28T06:43:05;148.67;;;38.93;;
52586;SDS011;38480;52.724;6.436;2022-09-28T06:45:34;132.93;;;38.80;;
52586;SDS011;38480;52.724;6.436;2022-09-28T06:48:00;101.23;;;35.10;;
52586;SDS011;38480;52.724;6.436;2022-09-28T06:50:30;117.30;;;34.77;;
52586;SDS011;38480;52.724;6.436;2022-09-28T06:52:56;123.57;;;38.33;;
52586;SDS011;38480;52.724;6.436;2022-09-28T06:55:23;75.20;;;29.63;;
52586;SDS011;38480;52.724;6.436;2022-09-28T06:57:59;90.83;;;31.17;;
52586;SDS011;38480;52.724;6.436;2022-09-28T07:00:26;87.77;;;32.77;;
52586;SDS011;38480;52.724;6.436;2022-09-28T07:02:52;121.67;;;35.17;;
52586;SDS011;38480;52.724;6.436;2022-09-28T07:05:18;79.70;;;30.67;;
52586;SDS011;38480;52.724;6.436;2022-09-28T07:07:48;92.27;;;33.30;;
52586;SDS011;38480;52.724;6.436;2022-09-28T07:10:14;98.23;;;33.33;;
52586;SDS011;38480;52.724;6.436;2022-09-28T07:12:40;89.20;;;32.10;;
52586;SDS011;38480;52.724;6.436;2022-09-28T07:15:06;63.83;;;28.10;;
52586;SDS011;38480;52.724;6.436;2022-09-28T07:17:33;87.43;;;31.57;;
52586;SDS011;38480;52.724;6.436;2022-09-28T07:20:00;60.63;;;26.77;;
52586;SDS011;38480;52.724;6.436;2022-09-28T07:22:27;87.30;;;30.13;;
52586;SDS011;38480;52.724;6.436;2022-09-28T07:24:53;69.57;;;28.37;;
52586;SDS011;38480;52.724;6.436;2022-09-28T07:27:21;89.43;;;32.50;;
52586;SDS011;38480;52.724;6.436;2022-09-28T07:29:47;58.40;;;24.50;;
52586;SDS011;38480;52.724;6.436;2022-09-28T07:32:13;77.73;;;29.03;;
52586;SDS011;38480;52.724;6.436;2022-09-28T07:34:39;71.70;;;29.27;;
52586;SDS011;38480;52.724;6.436;2022-09-28T07:37:09;60.87;;;26.10;;
52586;SDS011;38480;52.724;6.436;2022-09-28T07:39:39;55.10;;;25.50;;
52586;SDS011;38480;52.724;6.436;2022-09-28T07:42:24;59.70;;;24.50;;
52586;SDS011;38480;52.724;6.436;2022-09-28T07:44:54;63.53;;;25.83;;
52586;SDS011;38480;52.724;6.436;2022-09-28T07:47:21;67.73;;;26.57;;
52586;SDS011;38480;52.724;6.436;2022-09-28T07:49:54;42.00;;;22.53;;
52586;SDS011;38480;52.724;6.436;2022-09-28T07:52:24;45.43;;;21.10;;
52586;SDS011;38480;52.724;6.436;2022-09-28T07:54:52;45.07;;;20.60;;
52586;SDS011;38480;52.724;6.436;2022-09-28T07:57:19;58.77;;;22.43;;
52586;SDS011;38480;52.724;6.436;2022-09-28T07:59:46;42.07;;;19.53;;
52586;SDS011;38480;52.724;6.436;2022-09-28T08:02:14;36.87;;;19.07;;
52586;SDS011;38480;52.724;6.436;2022-09-28T08:04:40;46.67;;;22.13;;
52586;SDS011;38480;52.724;6.436;2022-09-28T08:07:09;37.33;;;19.50;;
52586;SDS011;38480;52.724;6.436;2022-09-28T08:09:36;38.43;;;19.57;;
52586;SDS011;38480;52.724;6.436;2022-09-28T08:12:02;27.17;;;15.23;;
52586;SDS011;38480;52.724;6.436;2022-09-28T08:14:29;25.40;;;14.70;;
52586;SDS011;38480;52.724;6.436;2022-09-28T08:16:59;26.10;;;15.00;;
52586;SDS011;38480;52.724;6.436;2022-09-28T08:19:25;27.73;;;15.70;;
52586;SDS011;38480;52.724;6.436;2022-09-28T08:22:11;27.33;;;14.07;;
52586;SDS011;38480;52.724;6.436;2022-09-28T08:24:37;21.90;;;13.97;;
52586;SDS011;38480;52.724;6.436;2022-09-28T08:27:03;20.57;;;11.47;;
52586;SDS011;38480;52.724;6.436;2022-09-28T08:29:29;17.43;;;10.93;;
52586;SDS011;38480;52.724;6.436;2022-09-28T08:31:56;18.97;;;10.80;;
52586;SDS011;38480;52.724;6.436;2022-09-28T08:34:24;25.37;;;12.87;;
52586;SDS011;38480;52.724;6.436;2022-09-28T08:36:51;17.63;;;10.87;;
52586;SDS011;38480;52.724;6.436;2022-09-28T08:39:17;16.57;;;11.23;;
52586;SDS011;38480;52.724;6.436;2022-09-28T08:42:06;14.93;;;10.80;;
52586;SDS011;38480;52.724;6.436;2022-09-28T08:44:40;13.83;;;9.80;;
52586;SDS011;38480;52.724;6.436;2022-09-28T08:47:12;13.97;;;8.93;;
52586;SDS011;38480;52.724;6.436;2022-09-28T08:50:01;11.60;;;7.22;;
52586;SDS011;38480;52.724;6.436;2022-09-28T08:52:29;11.00;;;7.40;;
52586;SDS011;38480;52.724;6.436;2022-09-28T08:55:09;10.63;;;7.00;;
52586;SDS011;38480;52.724;6.436;2022-09-28T08:57:56;10.13;;;6.30;;
52586;SDS011;38480;52.724;6.436;2022-09-28T09:00:31;14.80;;;8.57;;
52586;SDS011;38480;52.724;6.436;2022-09-28T09:02:58;11.27;;;7.70;;
52586;SDS011;38480;52.724;6.436;2022-09-28T09:05:36;10.17;;;7.53;;
52586;SDS011;38480;52.724;6.436;2022-09-28T09:18:36;7.37;;;3.97;;
52586;SDS011;38480;52.724;6.436;2022-09-28T09:21:13;6.60;;;3.57;;
52586;SDS011;38480;52.724;6.436;2022-09-28T09:23:56;8.37;;;4.40;;
52586;SDS011;38480;52.724;6.436;2022-09-28T09:26:31;8.60;;;5.13;;
52586;SDS011;38480;52.724;6.436;2022-09-28T09:29:03;9.13;;;4.40;;
52586;SDS011;38480;52.724;6.436;2022-09-28T09:34:25;5.63;;;4.57;;
52586;SDS011;38480;52.724;6.436;2022-09-28T09:39:36;7.43;;;4.23;;
52586;SDS011;38480;52.724;6.436;2022-09-28T09:50:02;6.80;;;4.20;;
52586;SDS011;38480;52.724;6.436;2022-09-28T09:54:57;6.83;;;3.67;;
52586;SDS011;38480;52.724;6.436;2022-09-28T09:57:25;6.83;;;4.57;;
52586;SDS011;38480;52.724;6.436;2022-09-28T09:59:53;7.20;;;4.57;;
52586;SDS011;38480;52.724;6.436;2022-09-28T10:02:27;4.73;;;3.40;;
52586;SDS011;38480;52.724;6.436;2022-09-28T10:04:56;6.40;;;3.40;;
52586;SDS011;38480;52.724;6.436;2022-09-28T10:10:32;4.53;;;3.77;;
52586;SDS011;38480;52.724;6.436;2022-09-28T10:12:55;5.37;;;3.23;;
52586;SDS011;38480;52.724;6.436;2022-09-28T10:15:23;5.60;;;3.00;;
52586;SDS011;38480;52.724;6.436;2022-09-28T10:17:49;3.90;;;2.23;;
52586;SDS011;38480;52.724;6.436;2022-09-28T10:20:16;3.53;;;1.40;;
52586;SDS011;38480;52.724;6.436;2022-09-28T10:22:43;6.20;;;2.10;;
52586;SDS011;38480;52.724;6.436;2022-09-28T10:25:10;3.23;;;1.70;;
52586;SDS011;38480;52.724;6.436;2022-09-28T10:27:37;8.07;;;1.57;;
52586;SDS011;38480;52.724;6.436;2022-09-28T10:35:12;3.50;;;1.73;;
52586;SDS011;38480;52.724;6.436;2022-09-28T10:37:46;3.47;;;1.60;;
52586;SDS011;38480;52.724;6.436;2022-09-28T10:40:24;3.40;;;1.73;;
52586;SDS011;38480;52.724;6.436;2022-09-28T10:43:00;3.20;;;1.40;;
52586;SDS011;38480;52.724;6.436;2022-09-28T10:47:55;3.67;;;1.90;;
52586;SDS011;38480;52.724;6.436;2022-09-28T10:50:25;2.63;;;1.40;;
52586;SDS011;38480;52.724;6.436;2022-09-28T10:52:52;6.83;;;2.10;;
52586;SDS011;38480;52.724;6.436;2022-09-28T10:55:28;6.33;;;1.83;;
52586;SDS011;38480;52.724;6.436;2022-09-28T10:57:56;4.27;;;2.40;;
52586;SDS011;38480;52.724;6.436;2022-09-28T11:00:38;5.00;;;1.70;;
52586;SDS011;38480;52.724;6.436;2022-09-28T11:03:04;3.33;;;1.70;;
52586;SDS011;38480;52.724;6.436;2022-09-28T11:05:31;3.03;;;1.83;;
52586;SDS011;38480;52.724;6.436;2022-09-28T11:07:57;2.93;;;1.53;;
52586;SDS011;38480;52.724;6.436;2022-09-28T11:10:25;3.00;;;0.90;;
52586;SDS011;38480;52.724;6.436;2022-09-28T11:12:52;3.90;;;1.00;;
52586;SDS011;38480;52.724;6.436;2022-09-28T11:15:20;2.70;;;1.17;;
52586;SDS011;38480;52.724;6.436;2022-09-28T11:17:47;2.10;;;1.33;;
52586;SDS011;38480;52.724;6.436;2022-09-28T11:22:51;3.33;;;1.37;;
52586;SDS011;38480;52.724;6.436;2022-09-28T11:25:19;1.60;;;0.90;;
52586;SDS011;38480;52.724;6.436;2022-09-28T11:32:47;2.20;;;0.70;;
52586;SDS011;38480;52.724;6.436;2022-09-28T11:35:21;4.30;;;0.90;;
52586;SDS011;38480;52.724;6.436;2022-09-28T11:48:12;1.73;;;0.70;;
52586;SDS011;38480;52.724;6.436;2022-09-28T11:50:47;2.73;;;0.70;;
52586;SDS011;38480;52.724;6.436;2022-09-28T11:55:53;1.90;;;0.40;;
52586;SDS011;38480;52.724;6.436;2022-09-28T11:58:26;3.07;;;0.50;;
52586;SDS011;38480;52.724;6.436;2022-09-28T12:01:02;5.27;;;0.60;;
52586;SDS011;38480;52.724;6.436;2022-09-28T12:03:34;3.33;;;0.40;;
52586;SDS011;38480;52.724;6.436;2022-09-28T12:06:05;2.00;;;0.70;;
52586;SDS011;38480;52.724;6.436;2022-09-28T12:08:34;1.27;;;0.50;;
52586;SDS011;38480;52.724;6.436;2022-09-28T12:11:06;2.43;;;0.50;;
52586;SDS011;38480;52.724;6.436;2022-09-28T12:13:37;1.93;;;0.40;;
52586;SDS011;38480;52.724;6.436;2022-09-28T12:16:12;2.27;;;1.03;;
52586;SDS011;38480;52.724;6.436;2022-09-28T12:18:53;0.90;;;0.30;;
52586;SDS011;38480;52.724;6.436;2022-09-28T12:21:42;1.70;;;0.57;;
52586;SDS011;38480;52.724;6.436;2022-09-28T12:24:26;2.70;;;0.50;;
52586;SDS011;38480;52.724;6.436;2022-09-28T12:26:58;1.10;;;0.63;;
52586;SDS011;38480;52.724;6.436;2022-09-28T12:29:26;1.27;;;0.22;;
52586;SDS011;38480;52.724;6.436;2022-09-28T12:31:56;0.20;;;0.13;;
52586;SDS011;38480;52.724;6.436;2022-09-28T12:34:22;0.50;;;0.20;;
52586;SDS011;38480;52.724;6.436;2022-09-28T12:41:54;0.13;;;0.10;;
52586;SDS011;38480;52.724;6.436;2022-09-28T12:49:26;0.60;;;0.30;;
52586;SDS011;38480;52.724;6.436;2022-09-28T12:51:55;0.70;;;0.30;;
52586;SDS011;38480;52.724;6.436;2022-09-28T12:59:20;6.10;;;1.00;;
52586;SDS011;38480;52.724;6.436;2022-09-28T13:10:09;1.83;;;0.77;;
52586;SDS011;38480;52.724;6.436;2022-09-28T13:12:42;1.27;;;0.50;;
52586;SDS011;38480;52.724;6.436;2022-09-28T13:15:16;1.00;;;0.57;;
52586;SDS011;38480;52.724;6.436;2022-09-28T13:17:55;4.30;;;0.63;;
52586;SDS011;38480;52.724;6.436;2022-09-28T13:20:39;1.13;;;0.43;;
52586;SDS011;38480;52.724;6.436;2022-09-28T13:23:12;1.17;;;0.40;;
52586;SDS011;38480;52.724;6.436;2022-09-28T13:25:45;1.10;;;0.40;;
52586;SDS011;38480;52.724;6.436;2022-09-28T13:28:12;0.60;;;0.40;;
52586;SDS011;38480;52.724;6.436;2022-09-28T13:30:39;1.33;;;0.40;;
52586;SDS011;38480;52.724;6.436;2022-09-28T13:33:06;3.03;;;0.70;;
52586;SDS011;38480;52.724;6.436;2022-09-28T13:35:33;3.07;;;0.80;;
52586;SDS011;38480;52.724;6.436;2022-09-28T13:43:27;105.83;;;9.03;;
52586;SDS011;38480;52.724;6.436;2022-09-28T13:45:56;364.87;;;32.63;;
52586;SDS011;38480;52.724;6.436;2022-09-28T13:48:32;248.23;;;22.13;;
52586;SDS011;38480;52.724;6.436;2022-09-28T13:51:17;496.20;;;47.43;;
52586;SDS011;38480;52.724;6.436;2022-09-28T13:59:22;1.50;;;0.43;;
52586;SDS011;38480;52.724;6.436;2022-09-28T14:06:50;1.60;;;0.40;;
52586;SDS011;38480;52.724;6.436;2022-09-28T14:09:22;1.98;;;1.00;;
52586;SDS011;38480;52.724;6.436;2022-09-28T14:11:57;2.47;;;0.70;;
52586;SDS011;38480;52.724;6.436;2022-09-28T14:14:30;3.47;;;0.83;;
52586;SDS011;38480;52.724;6.436;2022-09-28T14:19:44;4.97;;;0.67;;
52586;SDS011;38480;52.724;6.436;2022-09-28T14:22:49;6.70;;;0.80;;
52586;SDS011;38480;52.724;6.436;2022-09-28T14:25:09;2.37;;;0.70;;
52586;SDS011;38480;52.724;6.436;2022-09-28T14:30:28;2.07;;;0.70;;
52586;SDS011;38480;52.724;6.436;2022-09-28T14:32:58;7.30;;;1.20;;
52586;SDS011;38480;52.724;6.436;2022-09-28T14:35:38;1.03;;;0.60;;
52586;SDS011;38480;52.724;6.436;2022-09-28T14:38:11;3.07;;;0.70;;
52586;SDS011;38480;52.724;6.436;2022-09-28T14:40:58;1.50;;;0.75;;
52586;SDS011;38480;52.724;6.436;2022-09-28T14:48:48;2.83;;;0.90;;
52586;SDS011;38480;52.724;6.436;2022-09-28T14:53:55;2.37;;;1.03;;
52586;SDS011;38480;52.724;6.436;2022-09-28T14:56:24;3.50;;;1.00;;
52586;SDS011;38480;52.724;6.436;2022-09-28T14:58:51;1.60;;;0.87;;
52586;SDS011;38480;52.724;6.436;2022-09-28T15:01:18;0.80;;;0.50;;
52586;SDS011;38480;52.724;6.436;2022-09-28T15:03:48;1.13;;;0.60;;
52586;SDS011;38480;52.724;6.436;2022-09-28T15:06:16;1.30;;;0.40;;
52586;SDS011;38480;52.724;6.436;2022-09-28T15:08:44;0.47;;;0.30;;
52586;SDS011;38480;52.724;6.436;2022-09-28T15:11:23;1.50;;;0.70;;
52586;SDS011;38480;52.724;6.436;2022-09-28T15:13:50;1.57;;;0.57;;
52586;SDS011;38480;52.724;6.436;2022-09-28T15:16:21;2.63;;;0.40;;
52586;SDS011;38480;52.724;6.436;2022-09-28T15:19:01;1.93;;;0.53;;
52586;SDS011;38480;52.724;6.436;2022-09-28T15:21:37;0.87;;;0.37;;
52586;SDS011;38480;52.724;6.436;2022-09-28T15:27:12;1.00;;;0.40;;
52586;SDS011;38480;52.724;6.436;2022-09-28T15:29:39;0.67;;;0.20;;
52586;SDS011;38480;52.724;6.436;2022-09-28T15:32:05;2.73;;;0.50;;
52586;SDS011;38480;52.724;6.436;2022-09-28T15:34:32;2.03;;;0.63;;
52586;SDS011;38480;52.724;6.436;2022-09-28T15:37:28;0.90;;;0.30;;
52586;SDS011;38480;52.724;6.436;2022-09-28T15:39:54;1.73;;;0.40;;
52586;SDS011;38480;52.724;6.436;2022-09-28T15:42:22;0.67;;;0.30;;
52586;SDS011;38480;52.724;6.436;2022-09-28T15:47:29;4.43;;;0.60;;
52586;SDS011;38480;52.724;6.436;2022-09-28T15:50:00;2.30;;;0.40;;
52586;SDS011;38480;52.724;6.436;2022-09-28T15:52:38;2.53;;;0.53;;
52586;SDS011;38480;52.724;6.436;2022-09-28T15:57:47;0.30;;;0.17;;
52586;SDS011;38480;52.724;6.436;2022-09-28T16:08:22;3.97;;;1.23;;
52586;SDS011;38480;52.724;6.436;2022-09-28T16:10:54;0.83;;;0.30;;
52586;SDS011;38480;52.724;6.436;2022-09-28T16:13:21;0.93;;;0.20;;
52586;SDS011;38480;52.724;6.436;2022-09-28T16:15:52;0.73;;;0.23;;
52586;SDS011;38480;52.724;6.436;2022-09-28T16:18:21;0.83;;;0.30;;
52586;SDS011;38480;52.724;6.436;2022-09-28T16:20:53;0.87;;;0.20;;
52586;SDS011;38480;52.724;6.436;2022-09-28T16:25:57;0.17;;;0.17;;
52586;SDS011;38480;52.724;6.436;2022-09-28T16:31:00;0.53;;;0.20;;
52586;SDS011;38480;52.724;6.436;2022-09-28T16:33:37;0.83;;;0.30;;
52586;SDS011;38480;52.724;6.436;2022-09-28T16:36:04;1.20;;;0.30;;
52586;SDS011;38480;52.724;6.436;2022-09-28T16:38:35;1.33;;;0.40;;
52586;SDS011;38480;52.724;6.436;2022-09-28T16:41:03;0.80;;;0.30;;
52586;SDS011;38480;52.724;6.436;2022-09-28T16:43:30;1.20;;;0.40;;
52586;SDS011;38480;52.724;6.436;2022-09-28T16:45:59;1.90;;;0.60;;
52586;SDS011;38480;52.724;6.436;2022-09-28T16:48:28;1.00;;;0.30;;
52586;SDS011;38480;52.724;6.436;2022-09-28T16:50:55;2.00;;;0.53;;
52586;SDS011;38480;52.724;6.436;2022-09-28T16:53:21;7.73;;;5.27;;
52586;SDS011;38480;52.724;6.436;2022-09-28T16:56:05;2.83;;;1.40;;
52586;SDS011;38480;52.724;6.436;2022-09-28T16:58:32;3.10;;;1.30;;
52586;SDS011;38480;52.724;6.436;2022-09-28T17:00:58;3.70;;;2.60;;
52586;SDS011;38480;52.724;6.436;2022-09-28T17:03:25;3.90;;;2.80;;
52586;SDS011;38480;52.724;6.436;2022-09-28T17:05:51;0.97;;;0.50;;
52586;SDS011;38480;52.724;6.436;2022-09-28T17:08:18;1.20;;;0.67;;
52586;SDS011;38480;52.724;6.436;2022-09-28T17:13:12;1.07;;;0.50;;
52586;SDS011;38480;52.724;6.436;2022-09-28T17:15:40;1.23;;;0.53;;
52586;SDS011;38480;52.724;6.436;2022-09-28T17:18:09;2.57;;;0.67;;
52586;SDS011;38480;52.724;6.436;2022-09-28T17:20:38;2.33;;;0.50;;
52586;SDS011;38480;52.724;6.436;2022-09-28T17:23:04;1.20;;;0.50;;
52586;SDS011;38480;52.724;6.436;2022-09-28T17:25:30;2.40;;;0.47;;
52586;SDS011;38480;52.724;6.436;2022-09-28T17:27:56;1.67;;;0.43;;
52586;SDS011;38480;52.724;6.436;2022-09-28T17:30:23;4.27;;;0.90;;